Time;durP1;ratioP1;P1;durP2;ratioP2;P2;SDS_P1;SDS_P2;PMS_P1;PMS_P2;Temp;Humidity;BMP_temperature;BMP_pressure;BME280_temperature;BME280_humidity;BME280_pressure;Samples;Min_cycle;Max_cycle;Signal;HPM_P1;HPM_P2
2023/07/29 00:02:01;;;;;;;1.48;1.38;;;19.80;99.90;;;;;;5040467;28;20793;-75
2023/07/29 00:04:27;;;;;;;1.70;1.60;;;19.70;99.90;;;;;;5034141;28;20223;-75
2023/07/29 00:06:54;;;;;;;1.70;1.60;;;19.70;99.90;;;;;;5033176;28;20231;-76
2023/07/29 00:09:21;;;;;;;2.05;1.85;;;19.70;99.90;;;;;;5038060;28;20203;-74
2023/07/29 00:11:50;;;;;;;1.50;1.40;;;19.70;99.90;;;;;;5036781;28;20272;-76
2023/07/29 00:14:17;;;;;;;1.63;1.52;;;19.60;99.90;;;;;;5036795;28;21178;-75
2023/07/29 00:16:45;;;;;;;1.80;1.70;;;19.60;99.90;;;;;;5036309;28;20289;-75
2023/07/29 00:19:12;;;;;;;1.70;1.60;;;19.60;99.90;;;;;;5038005;28;20647;-77
2023/07/29 00:21:39;;;;;;;1.63;1.50;;;19.60;99.90;;;;;;5036683;28;20382;-75
2023/07/29 00:24:06;;;;;;;1.73;1.63;;;19.50;99.90;;;;;;5037278;28;20206;-75
2023/07/29 00:26:34;;;;;;;1.30;1.20;;;19.40;99.90;;;;;;5037841;28;20613;-75
2023/07/29 00:29:01;;;;;;;1.98;1.35;;;19.40;99.90;;;;;;5036009;28;20234;-77
2023/07/29 00:31:28;;;;;;;1.60;1.50;;;19.40;99.90;;;;;;5038117;28;20227;-74
2023/07/29 00:33:58;;;;;;;1.40;1.30;;;19.40;99.90;;;;;;5035051;28;20849;-75
2023/07/29 00:36:25;;;;;;;1.40;1.30;;;19.40;99.90;;;;;;5039650;28;20214;-76
2023/07/29 00:38:52;;;;;;;1.20;1.20;;;19.40;99.90;;;;;;5036943;28;20234;-75
2023/07/29 00:41:20;;;;;;;1.30;1.30;;;19.40;99.90;;;;;;5033109;28;20220;-75
2023/07/29 00:43:47;;;;;;;1.38;1.27;;;19.40;99.90;;;;;;5034494;28;20195;-75
2023/07/29 00:46:14;;;;;;;1.60;1.50;;;19.30;99.90;;;;;;5038993;28;20238;-75
2023/07/29 00:48:41;;;;;;;1.40;1.30;;;19.30;99.90;;;;;;5034822;28;20208;-74
2023/07/29 00:51:10;;;;;;;1.50;1.40;;;19.20;99.90;;;;;;5033905;28;20274;-76
2023/07/29 00:53:37;;;;;;;1.30;1.20;;;19.20;99.90;;;;;;5035347;28;20871;-74
2023/07/29 00:56:04;;;;;;;1.50;1.40;;;19.20;99.90;;;;;;5038757;28;20211;-76
2023/07/29 00:58:31;;;;;;;1.42;1.33;;;19.20;99.90;;;;;;5033411;28;20786;-75
2023/07/29 01:00:58;;;;;;;1.60;1.40;;;19.20;99.90;;;;;;5037358;28;20222;-76
2023/07/29 01:03:25;;;;;;;1.38;1.23;;;19.20;99.90;;;;;;5034956;28;20214;-76
2023/07/29 01:06:07;;;;;;;1.30;1.20;;;19.20;99.90;;;;;;5037259;28;20907;-75
2023/07/29 01:08:45;;;;;;;1.48;1.38;;;19.10;99.90;;;;;;5034853;28;20257;-75
2023/07/29 01:11:28;;;;;;;1.42;1.33;;;19.10;99.90;;;;;;5039823;28;20227;-73
2023/07/29 01:14:07;;;;;;;1.50;1.40;;;19.10;99.90;;;;;;5043829;28;20213;-76
2023/07/29 01:16:46;;;;;;;1.45;1.35;;;19.00;99.90;;;;;;5035346;28;20222;-76
2023/07/29 01:19:46;;;;;;;1.20;1.20;;;19.00;99.90;;;;;;5043471;28;20198;-76
2023/07/29 01:22:20;;;;;;;1.20;1.20;;;18.90;99.90;;;;;;5042411;28;20272;-76
2023/07/29 01:24:48;;;;;;;1.70;1.60;;;18.90;99.90;;;;;;5039911;28;20646;-77
2023/07/29 01:27:47;;;;;;;1.42;1.30;;;18.90;99.90;;;;;;5040077;28;20245;-76
2023/07/29 01:30:18;;;;;;;1.60;1.50;;;18.90;99.90;;;;;;5018095;28;20755;-76
2023/07/29 01:32:51;;;;;;;1.08;1.08;;;18.90;99.90;;;;;;5039964;28;20199;-75
2023/07/29 01:35:24;;;;;;;1.52;1.42;;;18.90;99.90;;;;;;5034916;28;20234;-77
2023/07/29 01:37:58;;;;;;;1.55;1.10;;;18.90;99.90;;;;;;5041328;28;20223;-75
2023/07/29 01:40:30;;;;;;;1.30;1.20;;;18.90;99.90;;;;;;5038693;28;20714;-76
2023/07/29 01:45:57;;;;;;;1.50;1.40;;;18.90;99.90;;;;;;5032628;28;20662;-76
2023/07/29 01:48:33;;;;;;;1.40;1.30;;;18.80;99.90;;;;;;5042774;28;20201;-77
2023/07/29 01:51:02;;;;;;;1.48;1.38;;;18.80;99.90;;;;;;5044469;28;20237;-76
2023/07/29 01:53:29;;;;;;;1.50;1.40;;;18.70;99.90;;;;;;5040451;28;20200;-75
2023/07/29 01:55:57;;;;;;;1.45;1.30;;;18.70;99.90;;;;;;5046404;28;20191;-74
2023/07/29 01:58:27;;;;;;;1.40;1.17;;;18.70;99.90;;;;;;5036667;28;20744;-76
2023/07/29 02:00:56;;;;;;;1.20;1.20;;;18.70;99.90;;;;;;5063912;22;20220;-72
2023/07/29 02:03:23;;;;;;;1.30;1.20;;;18.60;99.90;;;;;;5035804;28;20235;-72
2023/07/29 02:05:50;;;;;;;1.55;1.45;;;18.60;99.90;;;;;;5034216;28;20282;-72
2023/07/29 02:08:17;;;;;;;1.50;1.40;;;18.60;99.90;;;;;;5037314;28;20647;-72
2023/07/29 02:10:45;;;;;;;1.40;1.30;;;18.60;99.90;;;;;;5034097;28;20215;-72
2023/07/29 02:13:13;;;;;;;1.20;1.20;;;18.60;99.90;;;;;;5017309;28;20236;-72
2023/07/29 02:15:40;;;;;;;1.20;1.20;;;18.60;99.90;;;;;;5034481;28;20290;-73
2023/07/29 02:18:07;;;;;;;1.50;1.40;;;18.60;99.90;;;;;;5037928;28;20200;-72
2023/07/29 02:20:34;;;;;;;1.40;1.30;;;18.60;99.90;;;;;;5016124;28;20277;-72
2023/07/29 02:23:01;;;;;;;1.50;1.40;;;18.70;99.90;;;;;;5035860;28;20290;-72
2023/07/29 02:25:29;;;;;;;1.58;1.48;;;18.70;99.90;;;;;;5035144;28;20252;-72
2023/07/29 02:27:56;;;;;;;1.33;1.23;;;18.60;99.90;;;;;;5033358;28;20199;-72
2023/07/29 02:30:24;;;;;;;1.40;1.30;;;18.60;99.90;;;;;;5035440;28;20231;-72
2023/07/29 02:32:51;;;;;;;1.30;1.20;;;18.70;99.90;;;;;;5036201;28;20290;-73
2023/07/29 02:35:18;;;;;;;1.45;1.35;;;18.70;99.90;;;;;;5037392;28;20673;-72
2023/07/29 02:37:45;;;;;;;1.38;1.27;;;18.70;99.90;;;;;;5037845;28;20286;-72
2023/07/29 02:40:13;;;;;;;1.38;1.27;;;18.70;99.90;;;;;;5037915;28;20206;-73
2023/07/29 02:42:40;;;;;;;1.50;1.40;;;18.70;99.90;;;;;;5022551;28;20687;-72
2023/07/29 02:45:10;;;;;;;1.40;1.23;;;18.60;99.90;;;;;;5038966;28;20301;-72
2023/07/29 02:47:39;;;;;;;1.63;1.52;;;18.70;99.90;;;;;;5041257;28;20818;-72
2023/07/29 02:50:06;;;;;;;1.60;1.50;;;18.60;99.90;;;;;;5036269;28;20733;-72
2023/07/29 02:52:33;;;;;;;1.30;1.20;;;18.60;99.90;;;;;;5038414;28;20296;-72
2023/07/29 02:55:00;;;;;;;1.40;1.30;;;18.60;99.90;;;;;;5037349;28;20314;-71
2023/07/29 02:57:27;;;;;;;1.42;1.33;;;18.60;99.90;;;;;;5040992;28;20210;-72
2023/07/29 02:59:54;;;;;;;1.35;1.25;;;18.60;99.90;;;;;;5038701;28;20282;-71
2023/07/29 03:02:22;;;;;;;1.45;1.35;;;18.60;99.90;;;;;;5039974;28;20223;-72
2023/07/29 03:04:51;;;;;;;1.20;1.10;;;18.60;99.90;;;;;;5039053;28;20227;-72
2023/07/29 03:07:18;;;;;;;1.00;1.00;;;18.60;99.90;;;;;;5034941;28;20214;-72
2023/07/29 03:09:45;;;;;;;1.23;1.15;;;18.60;99.90;;;;;;5037923;28;20290;-71
2023/07/29 03:12:12;;;;;;;1.33;1.23;;;18.60;99.90;;;;;;5021327;28;20224;-72
2023/07/29 03:14:39;;;;;;;1.23;1.17;;;18.60;99.90;;;;;;5041006;28;20313;-72
2023/07/29 03:17:06;;;;;;;2.20;1.40;;;18.60;99.90;;;;;;5037828;28;20199;-72
2023/07/29 03:19:33;;;;;;;2.53;1.40;;;18.60;99.90;;;;;;5041679;28;20238;-72
2023/07/29 03:22:02;;;;;;;1.20;1.10;;;18.50;99.90;;;;;;5038440;28;20231;-71
2023/07/29 03:24:29;;;;;;;1.50;1.40;;;18.40;99.90;;;;;;5039143;28;20304;-72
2023/07/29 03:26:56;;;;;;;1.42;1.33;;;18.40;99.90;;;;;;5021287;28;20290;-72
2023/07/29 03:29:23;;;;;;;1.00;1.00;;;18.40;99.90;;;;;;5036178;28;20287;-71
2023/07/29 03:31:50;;;;;;;1.40;1.30;;;18.50;99.90;;;;;;5038923;28;20269;-71
2023/07/29 03:34:17;;;;;;;1.48;1.17;;;18.50;99.90;;;;;;5020653;28;20306;-73
2023/07/29 03:36:45;;;;;;;1.30;1.20;;;18.50;99.90;;;;;;5035302;28;20191;-72
2023/07/29 03:39:14;;;;;;;1.30;1.20;;;18.50;99.90;;;;;;5040751;28;20203;-72
2023/07/29 03:41:41;;;;;;;1.40;1.30;;;18.50;99.90;;;;;;5035968;28;20290;-72
2023/07/29 03:44:08;;;;;;;1.45;1.27;;;18.40;99.90;;;;;;5040042;28;20413;-72
2023/07/29 03:46:35;;;;;;;0.90;0.90;;;18.40;99.90;;;;;;5038056;28;20203;-72
2023/07/29 03:49:03;;;;;;;1.27;1.17;;;18.40;99.90;;;;;;5035187;28;20286;-72
2023/07/29 03:51:29;;;;;;;1.35;1.30;;;18.40;99.90;;;;;;5039014;28;20277;-72
2023/07/29 03:53:56;;;;;;;1.75;1.48;;;18.40;99.90;;;;;;5031787;28;20254;-71
2023/07/29 03:56:25;;;;;;;1.40;1.30;;;18.40;99.90;;;;;;5034740;28;20219;-71
2023/07/29 03:58:53;;;;;;;1.30;1.30;;;18.40;99.90;;;;;;5033834;28;20230;-72
2023/07/29 04:01:20;;;;;;;1.40;1.30;;;18.30;99.90;;;;;;5036965;28;20234;-72
2023/07/29 04:03:47;;;;;;;1.30;1.20;;;18.40;99.90;;;;;;5034606;28;20637;-72
2023/07/29 04:06:15;;;;;;;1.58;1.48;;;18.40;99.90;;;;;;5043520;28;20214;-72
2023/07/29 04:08:42;;;;;;;1.60;1.50;;;18.40;99.90;;;;;;5037185;28;20238;-71
2023/07/29 04:11:09;;;;;;;1.90;1.23;;;18.30;99.90;;;;;;5035459;28;20222;-72
2023/07/29 04:13:38;;;;;;;1.65;1.20;;;18.20;99.90;;;;;;5035310;28;20310;-72
2023/07/29 04:16:05;;;;;;;1.55;1.30;;;18.20;99.90;;;;;;5033189;28;20213;-72
2023/07/29 04:18:32;;;;;;;1.67;1.50;;;18.30;99.90;;;;;;5038165;28;20218;-72
2023/07/29 04:20:59;;;;;;;1.40;1.30;;;18.40;99.90;;;;;;5039288;28;20219;-72
2023/07/29 04:23:26;;;;;;;1.40;1.30;;;18.50;99.90;;;;;;5042151;28;20307;-72
2023/07/29 04:25:54;;;;;;;1.60;1.40;;;18.50;99.90;;;;;;5042715;28;20198;-72
2023/07/29 04:28:21;;;;;;;1.30;1.20;;;18.50;99.90;;;;;;5037013;28;20280;-72
2023/07/29 04:30:49;;;;;;;1.50;1.40;;;18.60;99.90;;;;;;5037459;28;20282;-73
2023/07/29 04:33:17;;;;;;;1.38;1.15;;;18.70;99.90;;;;;;5035398;28;20280;-72
2023/07/29 04:35:44;;;;;;;1.40;1.30;;;18.70;99.90;;;;;;5036179;28;20292;-72
2023/07/29 04:38:11;;;;;;;1.30;1.20;;;18.70;99.90;;;;;;5036943;28;20277;-72
2023/07/29 04:40:38;;;;;;;1.10;1.00;;;18.70;99.90;;;;;;5039574;28;20729;-73
2023/07/29 04:43:05;;;;;;;1.15;1.15;;;18.70;99.90;;;;;;5037209;28;20278;-71
2023/07/29 04:45:32;;;;;;;1.40;1.30;;;18.70;99.90;;;;;;5016720;28;20592;-72
2023/07/29 04:48:00;;;;;;;1.35;1.25;;;18.80;99.90;;;;;;5036502;28;20296;-71
2023/07/29 04:50:27;;;;;;;1.50;1.40;;;18.90;99.90;;;;;;5040450;28;20290;-72
2023/07/29 04:52:54;;;;;;;1.15;1.15;;;19.00;99.90;;;;;;5038034;28;20214;-72
2023/07/29 04:55:21;;;;;;;1.38;1.27;;;19.10;99.90;;;;;;5032549;28;20306;-72
2023/07/29 04:57:48;;;;;;;1.33;1.23;;;19.20;99.90;;;;;;5036784;28;20304;-72
2023/07/29 05:00:15;;;;;;;1.40;1.30;;;19.20;99.90;;;;;;5017920;28;20298;-72
2023/07/29 05:02:42;;;;;;;1.45;1.35;;;19.20;99.90;;;;;;5032427;28;20234;-72
2023/07/29 05:05:11;;;;;;;1.38;1.27;;;19.10;99.90;;;;;;5036171;28;20309;-72
2023/07/29 05:07:38;;;;;;;1.52;1.27;;;19.00;99.90;;;;;;5038345;28;20242;-72
2023/07/29 05:10:06;;;;;;;1.50;1.40;;;18.90;99.90;;;;;;5035109;28;20286;-72
2023/07/29 05:12:33;;;;;;;1.40;1.30;;;18.80;99.90;;;;;;5034320;28;20223;-71
2023/07/29 05:15:00;;;;;;;2.83;1.60;;;18.80;99.90;;;;;;5037293;28;20931;-72
2023/07/29 05:17:28;;;;;;;1.20;1.10;;;18.80;99.90;;;;;;5038025;28;20206;-72
2023/07/29 05:19:55;;;;;;;1.40;1.30;;;19.00;99.90;;;;;;5039302;28;20715;-72
2023/07/29 05:22:24;;;;;;;1.42;1.33;;;19.10;99.90;;;;;;5037741;28;20231;-72
2023/07/29 05:24:51;;;;;;;1.40;1.30;;;19.20;99.90;;;;;;5038385;28;20219;-72
2023/07/29 05:27:18;;;;;;;1.65;1.55;;;19.20;99.90;;;;;;5037049;28;20263;-72
2023/07/29 05:29:45;;;;;;;2.50;1.42;;;19.10;99.90;;;;;;5037365;28;20947;-72
2023/07/29 05:32:12;;;;;;;1.50;1.40;;;19.10;99.90;;;;;;5031680;28;20308;-72
2023/07/29 05:34:40;;;;;;;1.60;1.50;;;19.20;99.90;;;;;;5035725;28;20218;-73
2023/07/29 05:37:07;;;;;;;1.58;1.48;;;19.50;99.90;;;;;;5036250;28;20230;-72
2023/07/29 05:39:37;;;;;;;1.40;1.30;;;19.80;99.90;;;;;;5033866;28;20287;-72
2023/07/29 05:42:05;;;;;;;1.60;1.50;;;20.00;99.90;;;;;;5031059;28;20253;-72
2023/07/29 05:44:32;;;;;;;1.95;1.58;;;20.30;99.90;;;;;;5016817;28;20229;-72
2023/07/29 05:46:59;;;;;;;1.40;1.30;;;20.60;99.90;;;;;;5030713;28;20739;-71
2023/07/29 05:49:26;;;;;;;2.67;1.40;;;20.90;99.90;;;;;;5036147;28;20287;-71
2023/07/29 05:51:53;;;;;;;1.60;1.50;;;21.00;99.90;;;;;;5030490;28;20303;-71
2023/07/29 05:54:20;;;;;;;2.40;1.48;;;21.10;99.90;;;;;;5038914;28;20226;-71
2023/07/29 05:56:49;;;;;;;1.40;1.30;;;21.10;99.90;;;;;;5038622;28;20864;-71
2023/07/29 05:59:16;;;;;;;1.50;1.40;;;21.10;99.90;;;;;;5031652;28;20295;-71
2023/07/29 06:01:43;;;;;;;1.38;1.20;;;21.20;99.90;;;;;;5034413;28;20283;-71
2023/07/29 06:04:10;;;;;;;1.50;1.40;;;21.30;99.90;;;;;;5037657;28;20286;-71
2023/07/29 06:06:37;;;;;;;1.70;1.60;;;21.40;99.90;;;;;;5039197;28;20261;-71
2023/07/29 06:09:04;;;;;;;1.80;1.70;;;21.40;99.90;;;;;;5040585;28;20261;-71
2023/07/29 06:11:31;;;;;;;1.55;1.45;;;21.30;99.90;;;;;;5041785;28;20313;-71
2023/07/29 06:14:00;;;;;;;1.50;1.35;;;21.30;99.90;;;;;;5036722;28;20250;-71
2023/07/29 06:16:26;;;;;;;1.48;1.38;;;21.30;99.90;;;;;;5020568;28;20210;-71
2023/07/29 06:18:53;;;;;;;1.52;1.30;;;21.30;99.90;;;;;;5020017;28;20746;-71
2023/07/29 06:21:20;;;;;;;2.08;1.50;;;21.30;99.90;;;;;;5035720;28;20209;-72
2023/07/29 06:23:48;;;;;;;2.63;1.67;;;21.40;99.90;;;;;;5037593;28;20219;-71
2023/07/29 06:26:16;;;;;;;1.52;1.42;;;21.40;99.90;;;;;;5037297;28;20204;-71
2023/07/29 06:28:43;;;;;;;1.70;1.55;;;21.40;99.90;;;;;;5034951;28;20273;-72
2023/07/29 06:31:11;;;;;;;1.60;1.48;;;21.50;99.90;;;;;;5036424;28;20625;-71
2023/07/29 06:33:38;;;;;;;1.50;1.40;;;21.50;99.90;;;;;;5037219;28;20254;-71
2023/07/29 06:36:05;;;;;;;1.30;1.20;;;21.60;99.90;;;;;;5038596;28;20298;-72
2023/07/29 06:38:33;;;;;;;1.70;1.60;;;21.70;99.90;;;;;;5037365;28;20295;-71
2023/07/29 06:41:00;;;;;;;2.45;1.80;;;21.80;99.90;;;;;;5035332;28;20210;-71
2023/07/29 06:43:27;;;;;;;2.05;1.30;;;21.70;99.90;;;;;;5044016;28;20311;-71
2023/07/29 06:45:54;;;;;;;1.48;1.35;;;21.70;99.90;;;;;;5043404;28;20288;-72
2023/07/29 06:48:23;;;;;;;1.67;1.58;;;21.80;99.90;;;;;;5039829;28;20257;-73
2023/07/29 06:50:51;;;;;;;1.73;1.63;;;21.90;99.90;;;;;;5040371;28;20289;-72
2023/07/29 06:53:18;;;;;;;1.77;1.67;;;22.00;99.90;;;;;;5039082;28;20223;-72
2023/07/29 06:55:45;;;;;;;2.13;1.40;;;22.00;99.90;;;;;;5038995;28;20684;-72
2023/07/29 06:58:12;;;;;;;2.92;1.60;;;22.10;99.90;;;;;;5041650;28;20304;-71
2023/07/29 07:00:39;;;;;;;1.60;1.50;;;22.20;99.90;;;;;;5039026;28;20257;-70
2023/07/29 07:03:06;;;;;;;2.00;1.55;;;22.30;99.90;;;;;;5037032;28;20290;-70
2023/07/29 07:05:34;;;;;;;1.70;1.60;;;22.30;99.90;;;;;;5040504;28;20191;-70
2023/07/29 07:08:02;;;;;;;1.65;1.40;;;22.30;99.90;;;;;;5016586;28;20201;-70
2023/07/29 07:10:29;;;;;;;2.35;1.58;;;22.40;99.90;;;;;;5037145;28;20291;-70
2023/07/29 07:12:56;;;;;;;2.22;1.60;;;22.40;99.90;;;;;;5039900;28;20690;-71
2023/07/29 07:15:23;;;;;;;1.75;1.45;;;22.40;99.90;;;;;;5037594;28;20818;-70
2023/07/29 07:17:51;;;;;;;1.63;1.50;;;22.50;99.90;;;;;;5038520;28;20672;-71
2023/07/29 07:20:19;;;;;;;1.70;1.60;;;22.60;99.90;;;;;;5035861;28;20236;-70
2023/07/29 07:22:47;;;;;;;1.80;1.60;;;22.50;99.90;;;;;;5037613;28;20278;-70
2023/07/29 07:25:15;;;;;;;1.48;1.38;;;22.50;99.90;;;;;;5020978;28;20294;-70
2023/07/29 07:27:42;;;;;;;1.55;1.45;;;22.70;99.90;;;;;;5036270;28;20258;-70
2023/07/29 07:30:10;;;;;;;1.60;1.50;;;22.80;99.90;;;;;;5036693;28;20286;-71
2023/07/29 07:32:37;;;;;;;1.42;1.33;;;22.80;99.90;;;;;;5039421;28;20223;-71
2023/07/29 07:35:05;;;;;;;1.80;1.40;;;22.90;99.90;;;;;;5035517;28;20254;-70
2023/07/29 07:37:32;;;;;;;4.30;1.60;;;23.00;99.90;;;;;;5038757;28;20209;-70
2023/07/29 07:40:01;;;;;;;1.70;1.52;;;23.00;99.90;;;;;;5036906;28;20234;-70
2023/07/29 07:42:28;;;;;;;1.50;1.40;;;23.20;99.90;;;;;;5042416;28;20286;-71
2023/07/29 07:44:55;;;;;;;2.42;1.63;;;23.30;99.90;;;;;;5037932;28;20281;-70
2023/07/29 07:47:22;;;;;;;1.55;1.40;;;23.50;99.90;;;;;;5038732;28;20302;-71
2023/07/29 07:49:50;;;;;;;1.60;1.50;;;23.60;99.90;;;;;;5035036;28;20293;-71
2023/07/29 07:52:17;;;;;;;1.50;1.40;;;23.80;99.90;;;;;;5037011;28;20269;-71
2023/07/29 07:54:44;;;;;;;1.60;1.50;;;23.80;99.90;;;;;;5041056;28;20306;-71
2023/07/29 07:57:12;;;;;;;1.80;1.30;;;23.70;99.90;;;;;;5039376;28;20249;-71
2023/07/29 07:59:39;;;;;;;1.77;1.45;;;23.80;99.90;;;;;;5040341;28;20262;-71
2023/07/29 08:02:07;;;;;;;1.60;1.50;;;24.00;99.90;;;;;;4985117;28;1486170;-71
2023/07/29 08:04:34;;;;;;;2.00;1.55;;;23.90;99.90;;;;;;5023813;28;20863;-71
2023/07/29 08:07:01;;;;;;;1.65;1.55;;;23.80;99.90;;;;;;5035196;28;20297;-72
2023/07/29 08:09:28;;;;;;;2.42;1.50;;;23.80;99.90;;;;;;5041011;28;20937;-70
2023/07/29 08:11:55;;;;;;;2.55;1.48;;;24.00;99.90;;;;;;5033989;28;20200;-71
2023/07/29 08:14:24;;;;;;;1.85;1.50;;;24.20;99.90;;;;;;5033450;28;20212;-71
2023/07/29 08:16:51;;;;;;;1.77;1.67;;;24.30;99.90;;;;;;5040007;28;20236;-70
2023/07/29 08:19:18;;;;;;;1.60;1.50;;;24.60;99.90;;;;;;5034262;28;20202;-70
2023/07/29 08:21:45;;;;;;;3.75;1.42;;;24.80;99.90;;;;;;5035572;28;20250;-70
2023/07/29 08:24:12;;;;;;;1.50;1.40;;;24.80;99.90;;;;;;5038952;28;21246;-71
2023/07/29 08:26:39;;;;;;;1.42;1.25;;;24.90;99.90;;;;;;5033741;28;20291;-71
2023/07/29 08:29:06;;;;;;;1.50;1.40;;;24.90;99.90;;;;;;5019609;28;20227;-70
2023/07/29 08:31:34;;;;;;;1.67;1.58;;;24.90;99.90;;;;;;5017151;28;20657;-71
2023/07/29 08:34:01;;;;;;;1.60;1.42;;;25.00;99.90;;;;;;5037109;28;20304;-71
2023/07/29 08:36:28;;;;;;;1.70;1.60;;;25.00;99.90;;;;;;5020222;28;20203;-71
2023/07/29 08:38:55;;;;;;;1.60;1.40;;;25.20;99.90;;;;;;5019438;28;20211;-71
2023/07/29 08:41:28;;;;;;;2.30;1.40;;;25.10;99.90;;;;;;5021773;28;20211;-71
2023/07/29 08:44:02;;;;;;;1.50;1.40;;;24.90;99.90;;;;;;5037147;28;20215;-70
2023/07/29 08:46:30;;;;;;;1.42;1.33;;;24.90;99.90;;;;;;5040372;28;20198;-70
2023/07/29 08:49:01;;;;;;;1.42;1.33;;;25.20;99.90;;;;;;5036977;28;20683;-71
2023/07/29 08:51:28;;;;;;;1.23;1.13;;;25.40;99.90;;;;;;5016431;28;20207;-71
2023/07/29 08:53:56;;;;;;;1.52;1.42;;;25.40;99.90;;;;;;5037040;28;20302;-70
2023/07/29 08:56:24;;;;;;;1.77;1.65;;;25.40;99.90;;;;;;5033092;28;20286;-70
2023/07/29 08:58:51;;;;;;;1.80;1.52;;;25.40;99.90;;;;;;5036398;28;20449;-72
2023/07/29 09:01:18;;;;;;;1.83;1.50;;;25.60;99.90;;;;;;5034050;28;20242;-71
2023/07/29 09:03:45;;;;;;;1.60;1.50;;;25.90;99.90;;;;;;5037133;28;20223;-72
2023/07/29 09:06:15;;;;;;;1.50;1.40;;;26.10;99.90;;;;;;5040261;28;20297;-71
2023/07/29 09:08:42;;;;;;;1.95;1.40;;;26.10;99.90;;;;;;5034683;28;20208;-71
2023/07/29 09:11:09;;;;;;;1.73;1.60;;;26.20;99.90;;;;;;5037338;28;20731;-70
2023/07/29 09:13:37;;;;;;;2.08;1.67;;;26.20;99.90;;;;;;5034761;28;20325;-71
2023/07/29 09:16:05;;;;;;;1.40;1.30;;;25.90;99.90;;;;;;5037893;28;20226;-72
2023/07/29 09:18:32;;;;;;;1.30;1.20;;;25.80;99.90;;;;;;5033451;28;20199;-71
2023/07/29 09:21:01;;;;;;;2.33;1.40;;;26.00;99.90;;;;;;5033869;28;20237;-72
2023/07/29 09:23:29;;;;;;;1.60;1.50;;;26.20;99.90;;;;;;5034711;28;20211;-71
2023/07/29 09:26:02;;;;;;;2.03;1.80;;;26.60;99.90;;;;;;5039351;28;20687;-72
2023/07/29 09:28:34;;;;;;;1.77;1.65;;;26.60;99.90;;;;;;5038320;28;20295;-73
2023/07/29 09:31:02;;;;;;;1.58;1.48;;;26.50;99.90;;;;;;5028649;28;20270;-71
2023/07/29 09:33:31;;;;;;;1.45;1.35;;;26.50;99.90;;;;;;5036054;28;20339;-72
2023/07/29 09:35:58;;;;;;;1.63;1.52;;;26.60;99.90;;;;;;5042583;28;20199;-72
2023/07/29 09:38:29;;;;;;;1.70;1.52;;;26.90;99.90;;;;;;5017379;28;20204;-72
2023/07/29 09:40:58;;;;;;;1.50;1.40;;;26.80;99.90;;;;;;5035060;28;20644;-71
2023/07/29 09:43:30;;;;;;;1.60;1.50;;;26.70;99.90;;;;;;5037164;28;20881;-70
2023/07/29 09:46:00;;;;;;;4.10;1.55;;;26.90;99.90;;;;;;5041859;28;20921;-70
2023/07/29 09:48:28;;;;;;;1.60;1.50;;;26.90;99.90;;;;;;5034380;28;20199;-70
2023/07/29 09:50:56;;;;;;;1.33;1.23;;;27.10;99.90;;;;;;5024252;28;20205;-71
2023/07/29 09:53:23;;;;;;;1.88;1.45;;;27.20;99.90;;;;;;5018329;28;20309;-70
2023/07/29 09:55:51;;;;;;;1.40;1.30;;;27.10;99.90;;;;;;5038583;28;20206;-70
2023/07/29 09:58:27;;;;;;;1.48;1.30;;;27.10;99.90;;;;;;5038186;28;20203;-70
2023/07/29 10:00:54;;;;;;;1.42;1.30;;;27.20;99.90;;;;;;5039723;28;20297;-70
2023/07/29 10:03:22;;;;;;;1.50;1.40;;;27.40;99.90;;;;;;5037049;28;20310;-70
2023/07/29 10:05:50;;;;;;;1.60;1.50;;;27.30;99.90;;;;;;5034461;28;20235;-71
2023/07/29 10:08:18;;;;;;;1.50;1.40;;;27.20;99.90;;;;;;5035859;28;20297;-71
2023/07/29 10:10:46;;;;;;;1.73;1.30;;;27.20;99.90;;;;;;5040339;28;20240;-71
2023/07/29 10:13:16;;;;;;;1.30;1.20;;;27.30;99.90;;;;;;5039100;28;20306;-71
2023/07/29 10:15:45;;;;;;;1.33;1.23;;;27.40;99.90;;;;;;5041963;28;20293;-71
2023/07/29 10:18:12;;;;;;;2.08;1.63;;;27.50;99.90;;;;;;5037133;28;20242;-71
2023/07/29 10:20:41;;;;;;;1.10;1.10;;;27.40;99.90;;;;;;5036233;28;20753;-71
2023/07/29 10:23:09;;;;;;;1.20;1.10;;;27.50;99.90;;;;;;5039564;28;20285;-71
2023/07/29 10:25:41;;;;;;;1.88;1.33;;;27.50;99.90;;;;;;5036792;28;20286;-71
2023/07/29 10:28:09;;;;;;;1.60;1.50;;;27.50;99.90;;;;;;5036497;28;20203;-71
2023/07/29 10:30:37;;;;;;;1.30;1.20;;;27.50;99.90;;;;;;5037419;28;20285;-71
2023/07/29 10:33:06;;;;;;;1.60;1.50;;;27.50;99.90;;;;;;5037073;28;20285;-71
2023/07/29 10:35:34;;;;;;;1.25;1.17;;;27.50;99.90;;;;;;5038089;28;20204;-71
2023/07/29 10:38:04;;;;;;;1.45;1.35;;;27.70;99.90;;;;;;5033694;28;20798;-71
2023/07/29 10:40:46;;;;;;;1.10;1.10;;;27.90;99.90;;;;;;5018746;28;20230;-71
2023/07/29 10:43:14;;;;;;;1.70;1.60;;;28.00;99.90;;;;;;5036793;28;21074;-71
2023/07/29 10:45:43;;;;;;;1.27;1.17;;;28.30;99.90;;;;;;5038254;28;20207;-71
2023/07/29 10:48:13;;;;;;;2.45;1.20;;;28.40;99.90;;;;;;5036149;28;20212;-71
2023/07/29 10:50:40;;;;;;;2.35;1.13;;;28.20;99.90;;;;;;5038219;28;20282;-71
2023/07/29 10:53:08;;;;;;;0.95;0.95;;;28.10;99.90;;;;;;5039800;28;20210;-71
2023/07/29 10:55:37;;;;;;;3.38;2.38;;;28.40;99.90;;;;;;5041767;28;20286;-71
2023/07/29 10:58:09;;;;;;;3.55;2.60;;;28.60;99.90;;;;;;5035410;28;20200;-71
2023/07/29 11:00:37;;;;;;;2.83;2.30;;;28.70;99.90;;;;;;5019677;28;20826;-71
2023/07/29 11:03:07;;;;;;;2.13;1.90;;;28.70;99.90;;;;;;5022001;28;20841;-71
2023/07/29 11:05:49;;;;;;;2.15;1.83;;;28.80;99.90;;;;;;5037509;28;20291;-71
2023/07/29 11:08:22;;;;;;;2.17;1.77;;;28.80;99.90;;;;;;5039336;28;20343;-71
2023/07/29 11:11:06;;;;;;;2.13;1.60;;;28.70;99.90;;;;;;5023079;28;20700;-71
2023/07/29 11:13:35;;;;;;;2.35;1.50;;;28.60;99.90;;;;;;5020473;28;20223;-71
2023/07/29 11:16:03;;;;;;;1.65;1.52;;;28.60;99.90;;;;;;5034390;28;20235;-71
2023/07/29 11:18:34;;;;;;;2.55;1.50;;;28.50;99.90;;;;;;5028758;28;20394;-71
2023/07/29 11:21:03;;;;;;;1.55;1.45;;;28.70;99.90;;;;;;5020594;28;20293;-72
2023/07/29 11:23:32;;;;;;;1.50;1.40;;;28.70;99.90;;;;;;5039481;28;20237;-71
2023/07/29 11:25:59;;;;;;;1.42;1.33;;;28.70;99.90;;;;;;5037622;28;20261;-71
2023/07/29 11:28:27;;;;;;;2.92;1.65;;;28.70;99.90;;;;;;5038661;28;20199;-71
2023/07/29 11:30:55;;;;;;;1.50;1.40;;;29.00;99.90;;;;;;5024143;28;20808;-71
2023/07/29 11:33:24;;;;;;;1.63;1.42;;;29.20;99.90;;;;;;5039170;28;20283;-71
2023/07/29 11:35:53;;;;;;;1.48;1.38;;;29.30;99.90;;;;;;5041836;28;20207;-72
2023/07/29 11:38:22;;;;;;;1.50;1.40;;;29.40;99.90;;;;;;5038962;28;20213;-72
2023/07/29 11:41:00;;;;;;;1.60;1.50;;;29.40;99.90;;;;;;5041241;28;20226;-72
2023/07/29 11:43:28;;;;;;;1.85;1.67;;;29.30;99.90;;;;;;5023257;28;20265;-73
2023/07/29 11:45:55;;;;;;;1.65;1.50;;;29.20;99.90;;;;;;5039040;28;20250;-72
2023/07/29 11:48:29;;;;;;;1.60;1.50;;;29.10;99.90;;;;;;5039815;28;20194;-73
2023/07/29 11:50:58;;;;;;;1.65;1.55;;;29.10;99.90;;;;;;5040333;28;20203;-72
2023/07/29 11:53:28;;;;;;;1.70;1.60;;;29.00;99.90;;;;;;5041564;28;20690;-72
2023/07/29 11:55:55;;;;;;;1.80;1.70;;;29.10;99.90;;;;;;5038942;28;20291;-73
2023/07/29 11:58:23;;;;;;;2.10;1.73;;;28.90;99.90;;;;;;5037561;28;20203;-73
2023/07/29 12:00:50;;;;;;;2.30;1.73;;;28.90;99.90;;;;;;5034559;28;20692;-72
2023/07/29 12:03:18;;;;;;;1.75;1.60;;;28.90;99.90;;;;;;5036637;28;20226;-72
2023/07/29 12:05:45;;;;;;;3.03;2.05;;;28.80;99.90;;;;;;5036619;28;20288;-72
2023/07/29 12:08:14;;;;;;;1.98;1.50;;;28.80;99.90;;;;;;5037335;28;20211;-73
2023/07/29 12:10:41;;;;;;;2.75;2.28;;;28.90;99.90;;;;;;5036587;28;20207;-73
2023/07/29 12:13:09;;;;;;;2.38;2.13;;;28.80;99.90;;;;;;5028479;28;20905;-73
2023/07/29 12:15:39;;;;;;;2.10;2.00;;;28.70;99.90;;;;;;5035763;28;20207;-73
2023/07/29 12:18:07;;;;;;;3.17;2.42;;;28.90;99.90;;;;;;5035863;28;20198;-73
2023/07/29 12:20:34;;;;;;;2.78;2.08;;;29.00;99.90;;;;;;5029916;28;20204;-73
2023/07/29 12:23:02;;;;;;;2.97;2.25;;;29.00;99.90;;;;;;5039191;28;20282;-73
2023/07/29 12:25:31;;;;;;;3.05;2.63;;;29.20;99.90;;;;;;5033519;28;20289;-72
2023/07/29 12:28:02;;;;;;;2.72;2.53;;;29.20;99.90;;;;;;5040934;28;20199;-73
2023/07/29 12:30:30;;;;;;;2.67;2.47;;;29.40;99.90;;;;;;5042226;28;20317;-73
2023/07/29 12:32:57;;;;;;;2.95;2.63;;;29.30;99.90;;;;;;5035472;28;20196;-73
2023/07/29 12:35:24;;;;;;;2.47;2.28;;;29.40;99.90;;;;;;5039436;28;20243;-73
2023/07/29 12:37:59;;;;;;;2.97;2.30;;;29.50;99.90;;;;;;5036706;28;20207;-73
2023/07/29 12:40:27;;;;;;;3.08;2.70;;;29.70;99.90;;;;;;5035341;28;20225;-72
2023/07/29 12:42:56;;;;;;;2.92;2.72;;;29.80;99.90;;;;;;5034978;28;20203;-72
2023/07/29 12:45:26;;;;;;;4.30;3.08;;;29.80;99.90;;;;;;5032555;28;20199;-72
2023/07/29 12:47:54;;;;;;;2.95;2.55;;;29.80;99.90;;;;;;5037696;28;20199;-74
2023/07/29 12:50:21;;;;;;;4.45;2.72;;;29.70;99.90;;;;;;5017500;28;20222;-74
2023/07/29 12:52:48;;;;;;;2.85;2.60;;;29.80;99.90;;;;;;5040720;28;20199;-73
2023/07/29 12:55:15;;;;;;;2.97;2.63;;;29.90;99.90;;;;;;5014528;28;20226;-74
2023/07/29 12:57:43;;;;;;;3.60;2.80;;;29.90;99.90;;;;;;5036621;28;20239;-75